Time;durP1;ratioP1;P1;durP2;ratioP2;P2;SDS_P1;SDS_P2;PMS_P1;PMS_P2;Temp;Humidity;BMP_temperature;BMP_pressure;BME280_temperature;BME280_humidity;BME280_pressure;Samples;Min_cycle;Max_cycle;Signal;HPM_P1;HPM_P2
2023/05/06 00:00:58;;;;;;;48.30;21.33;;;;;;;;;;5055759;28;20048;-62
2023/05/06 00:03:24;;;;;;;48.25;21.23;;;;;;;;;;5067578;28;20058;-62
2023/05/06 00:05:49;;;;;;;43.00;20.27;;;;;;;;;;5069786;28;20040;-61
2023/05/06 00:08:15;;;;;;;44.15;19.88;;;;;;;;;;5066853;28;20401;-62
2023/05/06 00:10:41;;;;;;;42.63;20.08;;;;;;;;;;5069101;28;20138;-62
2023/05/06 00:13:07;;;;;;;41.00;19.58;;;;;;;;;;5059521;28;20844;-62
2023/05/06 00:15:33;;;;;;;40.10;18.98;;;;;;;;;;5052676;28;20041;-62
2023/05/06 00:17:59;;;;;;;42.03;18.27;;;;;;;;;;5050282;28;20029;-61
2023/05/06 00:20:24;;;;;;;38.60;18.58;;;;;;;;;;5059201;28;20075;-62
2023/05/06 00:22:50;;;;;;;40.25;18.15;;;;;;;;;;5062846;28;20073;-61
2023/05/06 00:25:15;;;;;;;32.38;16.58;;;;;;;;;;5049062;28;20386;-61
2023/05/06 00:27:40;;;;;;;33.95;16.95;;;;;;;;;;5070960;28;20033;-62
2023/05/06 00:30:06;;;;;;;35.15;17.90;;;;;;;;;;5066900;28;20153;-61
2023/05/06 00:32:32;;;;;;;39.42;19.05;;;;;;;;;;5053178;28;20029;-62
2023/05/06 00:34:57;;;;;;;39.08;19.02;;;;;;;;;;5068931;28;20040;-61
2023/05/06 00:37:22;;;;;;;36.13;18.33;;;;;;;;;;5065711;28;20107;-61
2023/05/06 00:39:48;;;;;;;42.45;19.10;;;;;;;;;;5055102;28;20435;-61
2023/05/06 00:42:13;;;;;;;47.55;20.92;;;;;;;;;;5070646;28;20115;-61
2023/05/06 00:44:39;;;;;;;40.97;18.98;;;;;;;;;;5071189;28;20112;-61
2023/05/06 00:47:04;;;;;;;44.00;18.70;;;;;;;;;;5057490;28;20478;-62
2023/05/06 00:49:30;;;;;;;40.03;19.10;;;;;;;;;;5070314;28;20036;-61
2023/05/06 00:51:57;;;;;;;33.95;18.00;;;;;;;;;;5073644;28;20033;-62
2023/05/06 00:54:25;;;;;;;36.25;17.83;;;;;;;;;;5067863;28;20025;-63
2023/05/06 00:56:51;;;;;;;31.55;16.98;;;;;;;;;;5056099;28;20067;-62
2023/05/06 00:59:17;;;;;;;35.80;16.77;;;;;;;;;;5066903;28;20036;-61
2023/05/06 01:01:42;;;;;;;37.83;18.65;;;;;;;;;;5057198;28;20033;-61
2023/05/06 01:04:08;;;;;;;38.72;17.63;;;;;;;;;;5063804;28;20060;-61
2023/05/06 01:06:52;;;;;;;36.13;17.20;;;;;;;;;;5072134;28;20124;-61
2023/05/06 01:09:23;;;;;;;37.25;17.25;;;;;;;;;;5073687;28;20119;-61
2023/05/06 01:11:53;;;;;;;35.38;16.52;;;;;;;;;;5071947;28;20082;-61
2023/05/06 01:14:34;;;;;;;37.20;17.45;;;;;;;;;;5058820;28;20037;-61
2023/05/06 01:17:03;;;;;;;41.88;18.75;;;;;;;;;;5052959;28;20033;-61
2023/05/06 01:19:41;;;;;;;38.80;17.75;;;;;;;;;;5061404;28;20120;-61
2023/05/06 01:22:09;;;;;;;35.35;17.30;;;;;;;;;;5064286;28;20382;-62
2023/05/06 01:24:39;;;;;;;37.17;17.58;;;;;;;;;;5056690;28;20033;-63
2023/05/06 01:27:06;;;;;;;33.65;16.30;;;;;;;;;;5058949;28;20043;-62
2023/05/06 01:29:33;;;;;;;30.65;16.10;;;;;;;;;;5064299;28;20036;-62
2023/05/06 01:32:06;;;;;;;35.53;16.48;;;;;;;;;;5052368;28;20446;-61
2023/05/06 01:34:48;;;;;;;29.38;15.48;;;;;;;;;;5057759;28;20021;-61
2023/05/06 01:37:52;;;;;;;33.55;15.88;;;;;;;;;;5072638;28;20047;-62
2023/05/06 01:40:17;;;;;;;30.95;15.40;;;;;;;;;;5020888;28;20049;-61
2023/05/06 01:42:48;;;;;;;30.27;15.23;;;;;;;;;;5059428;28;20040;-61
2023/05/06 01:45:15;;;;;;;28.10;15.18;;;;;;;;;;5054225;28;20092;-61
2023/05/06 01:47:41;;;;;;;26.70;14.73;;;;;;;;;;5069307;28;20036;-61
2023/05/06 01:50:07;;;;;;;27.98;14.95;;;;;;;;;;5071706;28;20039;-61
2023/05/06 01:52:32;;;;;;;25.38;14.35;;;;;;;;;;5055544;28;20036;-62
2023/05/06 01:54:58;;;;;;;28.83;15.15;;;;;;;;;;5061034;28;20107;-61
2023/05/06 01:57:23;;;;;;;27.67;14.70;;;;;;;;;;5054428;28;20044;-61
2023/05/06 01:59:49;;;;;;;29.75;15.20;;;;;;;;;;5053181;28;20485;-60
2023/05/06 02:02:14;;;;;;;30.05;15.52;;;;;;;;;;5070746;28;20166;-61
2023/05/06 02:04:40;;;;;;;34.50;15.75;;;;;;;;;;5069125;28;20455;-62
2023/05/06 02:07:05;;;;;;;28.67;14.93;;;;;;;;;;5071388;28;20032;-62
2023/05/06 02:09:31;;;;;;;31.73;16.52;;;;;;;;;;5065959;28;20033;-61
2023/05/06 02:11:56;;;;;;;26.30;14.48;;;;;;;;;;5058611;28;20115;-61
2023/05/06 02:14:21;;;;;;;28.75;14.70;;;;;;;;;;5058999;28;20060;-61
2023/05/06 02:16:47;;;;;;;28.27;14.48;;;;;;;;;;5052980;28;20056;-63
2023/05/06 02:19:12;;;;;;;29.00;14.45;;;;;;;;;;5051920;28;20347;-61
2023/05/06 02:21:38;;;;;;;27.10;14.27;;;;;;;;;;5050478;28;20029;-63
2023/05/06 02:24:03;;;;;;;25.80;13.80;;;;;;;;;;5051725;28;20031;-62
2023/05/06 02:26:29;;;;;;;27.67;14.35;;;;;;;;;;5060907;28;20032;-62
2023/05/06 02:28:54;;;;;;;31.73;15.13;;;;;;;;;;5058541;28;20065;-61
2023/05/06 02:31:20;;;;;;;25.95;14.10;;;;;;;;;;5053852;28;20078;-61
2023/05/06 02:33:45;;;;;;;26.33;14.00;;;;;;;;;;5053224;28;20377;-61
2023/05/06 02:36:11;;;;;;;43.45;15.82;;;;;;;;;;5067496;28;20106;-62
2023/05/06 02:38:36;;;;;;;47.30;15.18;;;;;;;;;;5072545;28;20036;-63
2023/05/06 02:41:02;;;;;;;33.70;13.80;;;;;;;;;;5066714;28;20036;-62
2023/05/06 02:43:28;;;;;;;34.38;15.30;;;;;;;;;;5068871;28;20037;-63
2023/05/06 02:45:53;;;;;;;41.15;15.65;;;;;;;;;;5072409;28;20093;-63
2023/05/06 02:48:18;;;;;;;30.10;15.18;;;;;;;;;;5067703;28;20622;-63
2023/05/06 02:50:44;;;;;;;34.60;15.30;;;;;;;;;;5070319;28;20032;-63
2023/05/06 02:53:11;;;;;;;40.90;16.08;;;;;;;;;;5069883;28;20416;-62
2023/05/06 02:55:37;;;;;;;35.97;15.40;;;;;;;;;;5070288;28;20085;-63
2023/05/06 02:58:03;;;;;;;35.53;15.50;;;;;;;;;;5057334;28;20028;-61
2023/05/06 03:00:28;;;;;;;30.92;15.15;;;;;;;;;;5066389;28;20032;-63
2023/05/06 03:02:54;;;;;;;50.05;15.98;;;;;;;;;;5051405;28;20539;-62
2023/05/06 03:05:19;;;;;;;28.23;14.05;;;;;;;;;;5071397;28;20149;-63
2023/05/06 03:07:45;;;;;;;30.90;14.73;;;;;;;;;;5068141;28;20036;-62
2023/05/06 03:10:11;;;;;;;34.80;14.82;;;;;;;;;;5064586;28;20079;-63
2023/05/06 03:12:36;;;;;;;29.55;14.02;;;;;;;;;;5061305;28;20033;-63
2023/05/06 03:15:02;;;;;;;38.65;15.48;;;;;;;;;;5065379;28;20036;-62
2023/05/06 03:17:27;;;;;;;38.08;15.20;;;;;;;;;;5065309;28;20059;-63
2023/05/06 03:19:52;;;;;;;32.88;14.50;;;;;;;;;;5070647;28;20396;-62
2023/05/06 03:22:18;;;;;;;29.05;13.98;;;;;;;;;;5071203;28;20032;-63
2023/05/06 03:24:45;;;;;;;30.00;14.50;;;;;;;;;;5068910;28;20162;-62
2023/05/06 03:27:10;;;;;;;26.85;12.93;;;;;;;;;;5066539;28;20141;-62
2023/05/06 03:29:35;;;;;;;29.77;13.52;;;;;;;;;;5057535;28;20032;-63
2023/05/06 03:32:02;;;;;;;26.83;13.55;;;;;;;;;;5069947;28;20396;-62
2023/05/06 03:34:28;;;;;;;26.58;13.48;;;;;;;;;;5068751;28;20055;-62
2023/05/06 03:36:54;;;;;;;29.63;13.48;;;;;;;;;;5069590;28;20072;-63
2023/05/06 03:39:20;;;;;;;30.80;14.40;;;;;;;;;;5066779;28;20178;-63
2023/05/06 03:41:45;;;;;;;41.38;17.67;;;;;;;;;;5066954;28;20036;-62
2023/05/06 03:44:11;;;;;;;33.13;14.75;;;;;;;;;;5057731;28;20112;-61
2023/05/06 03:46:37;;;;;;;35.75;15.18;;;;;;;;;;5065129;28;20021;-62
2023/05/06 03:49:03;;;;;;;35.53;14.02;;;;;;;;;;5056419;28;20441;-61
2023/05/06 03:51:29;;;;;;;35.42;15.35;;;;;;;;;;5071092;28;20044;-62
2023/05/06 03:53:55;;;;;;;37.80;15.45;;;;;;;;;;5065122;28;20025;-62
2023/05/06 03:56:21;;;;;;;38.95;15.75;;;;;;;;;;5070306;28;20275;-66
2023/05/06 03:58:47;;;;;;;53.55;17.08;;;;;;;;;;5072142;28;20025;-62
2023/05/06 04:01:13;;;;;;;47.55;17.17;;;;;;;;;;5067324;28;20446;-62
2023/05/06 04:03:38;;;;;;;50.42;17.40;;;;;;;;;;5067888;28;20032;-62
2023/05/06 04:06:04;;;;;;;50.65;18.48;;;;;;;;;;5070255;28;20032;-61
2023/05/06 04:08:32;;;;;;;48.90;17.55;;;;;;;;;;5062177;28;20103;-62
2023/05/06 04:11:03;;;;;;;50.72;18.15;;;;;;;;;;5063943;28;20111;-64
2023/05/06 04:13:28;;;;;;;54.38;17.90;;;;;;;;;;5056414;28;20032;-63
2023/05/06 04:15:53;;;;;;;57.35;18.85;;;;;;;;;;5070422;28;20115;-62
2023/05/06 04:18:22;;;;;;;55.78;17.65;;;;;;;;;;5066404;28;20334;-64
2023/05/06 04:20:47;;;;;;;53.05;18.95;;;;;;;;;;5053790;28;20533;-62
2023/05/06 04:23:13;;;;;;;55.28;19.58;;;;;;;;;;5059443;28;20107;-62
2023/05/06 04:25:41;;;;;;;69.85;21.30;;;;;;;;;;5073306;28;20048;-61
2023/05/06 04:28:07;;;;;;;70.32;21.08;;;;;;;;;;5064072;28;20044;-61
2023/05/06 04:30:33;;;;;;;63.75;20.40;;;;;;;;;;5055901;28;20056;-62
2023/05/06 04:32:58;;;;;;;57.85;20.48;;;;;;;;;;5071792;28;20048;-63
2023/05/06 04:35:24;;;;;;;60.33;19.13;;;;;;;;;;5072714;28;20024;-63
2023/05/06 04:37:49;;;;;;;56.20;18.75;;;;;;;;;;5062895;28;20055;-63
2023/05/06 04:40:14;;;;;;;54.03;19.00;;;;;;;;;;5073005;28;20037;-63
2023/05/06 04:42:40;;;;;;;54.78;19.45;;;;;;;;;;5063117;28;20477;-62
2023/05/06 04:45:06;;;;;;;49.40;18.52;;;;;;;;;;5071606;28;20036;-61
2023/05/06 04:47:32;;;;;;;43.47;17.35;;;;;;;;;;5068698;28;20040;-61
2023/05/06 04:49:58;;;;;;;44.63;17.95;;;;;;;;;;5063877;28;20083;-62
2023/05/06 04:52:23;;;;;;;51.05;19.05;;;;;;;;;;5057210;28;20080;-62
2023/05/06 04:54:49;;;;;;;45.25;16.90;;;;;;;;;;5055751;28;20079;-62
2023/05/06 04:57:14;;;;;;;50.00;17.92;;;;;;;;;;5068433;28;20039;-61
2023/05/06 04:59:41;;;;;;;55.88;18.80;;;;;;;;;;5069506;28;20024;-62
2023/05/06 05:02:06;;;;;;;55.83;18.83;;;;;;;;;;5071958;28;20106;-61
2023/05/06 05:04:32;;;;;;;52.53;18.42;;;;;;;;;;5057423;28;20068;-62
2023/05/06 05:06:57;;;;;;;56.92;19.60;;;;;;;;;;5066231;28;20060;-62
2023/05/06 05:09:23;;;;;;;61.45;19.58;;;;;;;;;;5063570;28;20420;-62
2023/05/06 05:11:48;;;;;;;58.25;18.15;;;;;;;;;;5073065;28;20028;-62
2023/05/06 05:14:14;;;;;;;57.35;18.63;;;;;;;;;;5071398;28;20078;-62
2023/05/06 05:16:40;;;;;;;50.97;18.25;;;;;;;;;;5065895;28;20508;-61
2023/05/06 05:19:06;;;;;;;50.20;17.75;;;;;;;;;;5052536;28;20128;-62
2023/05/06 05:21:31;;;;;;;61.85;19.10;;;;;;;;;;5068760;28;20104;-62
2023/05/06 05:23:57;;;;;;;52.67;18.08;;;;;;;;;;5068714;28;20112;-61
2023/05/06 05:26:22;;;;;;;50.92;17.80;;;;;;;;;;5070928;28;20055;-62
2023/05/06 05:28:47;;;;;;;55.28;17.95;;;;;;;;;;5068733;28;20119;-61
2023/05/06 05:31:13;;;;;;;55.25;18.33;;;;;;;;;;5070368;28;20512;-61
2023/05/06 05:33:38;;;;;;;52.80;17.60;;;;;;;;;;5073907;28;20037;-61
2023/05/06 05:36:04;;;;;;;56.47;18.73;;;;;;;;;;5070363;28;20028;-59
2023/05/06 05:38:29;;;;;;;50.45;19.40;;;;;;;;;;5067325;28;20362;-61
2023/05/06 05:40:55;;;;;;;53.78;19.10;;;;;;;;;;5056999;28;20033;-61
2023/05/06 05:43:21;;;;;;;56.63;19.48;;;;;;;;;;5052864;28;20048;-60
2023/05/06 05:45:47;;;;;;;53.33;19.85;;;;;;;;;;5059229;28;20099;-61
2023/05/06 05:48:12;;;;;;;54.20;19.90;;;;;;;;;;5068450;28;20492;-60
2023/05/06 05:50:37;;;;;;;55.38;20.33;;;;;;;;;;5066801;28;20029;-60
2023/05/06 05:53:04;;;;;;;60.35;20.27;;;;;;;;;;5059756;28;20031;-61
2023/05/06 05:55:30;;;;;;;57.67;20.27;;;;;;;;;;5070953;28;20119;-61
2023/05/06 05:57:55;;;;;;;59.97;20.30;;;;;;;;;;5073420;28;20487;-60
2023/05/06 06:00:21;;;;;;;57.20;20.40;;;;;;;;;;5066466;28;20033;-63
2023/05/06 06:02:46;;;;;;;59.25;20.25;;;;;;;;;;5053269;28;20056;-60
2023/05/06 06:05:12;;;;;;;57.97;20.70;;;;;;;;;;5062094;28;20036;-62
2023/05/06 06:07:38;;;;;;;56.70;20.90;;;;;;;;;;5070836;28;20040;-62
2023/05/06 06:10:05;;;;;;;58.55;20.73;;;;;;;;;;5060945;28;20043;-62
2023/05/06 06:12:30;;;;;;;60.80;20.42;;;;;;;;;;5053766;28;20301;-61
2023/05/06 06:14:56;;;;;;;61.47;21.90;;;;;;;;;;5067231;28;20526;-61
2023/05/06 06:17:21;;;;;;;57.25;21.73;;;;;;;;;;5063054;28;20432;-61
2023/05/06 06:19:46;;;;;;;59.25;20.50;;;;;;;;;;5072958;28;20542;-61
2023/05/06 06:22:12;;;;;;;52.47;20.13;;;;;;;;;;5069590;28;20396;-61
2023/05/06 06:24:37;;;;;;;61.17;20.85;;;;;;;;;;5052216;28;20385;-61
2023/05/06 06:27:03;;;;;;;60.60;20.90;;;;;;;;;;5052933;28;20119;-61
2023/05/06 06:29:28;;;;;;;54.33;21.05;;;;;;;;;;5051866;28;20424;-61
2023/05/06 06:31:54;;;;;;;50.72;21.67;;;;;;;;;;5052671;28;20029;-61
2023/05/06 06:34:20;;;;;;;56.05;21.95;;;;;;;;;;5051894;28;20032;-61
2023/05/06 06:36:46;;;;;;;48.55;20.88;;;;;;;;;;5052588;28;20052;-61
2023/05/06 06:39:12;;;;;;;55.95;21.08;;;;;;;;;;5060350;28;20024;-62
2023/05/06 06:41:37;;;;;;;54.67;21.23;;;;;;;;;;5071690;28;20154;-61
2023/05/06 06:44:03;;;;;;;54.90;21.73;;;;;;;;;;5072576;28;20028;-61
2023/05/06 06:46:28;;;;;;;54.95;21.55;;;;;;;;;;5071432;28;20036;-62
2023/05/06 06:48:54;;;;;;;52.38;22.17;;;;;;;;;;5072222;28;20037;-60
2023/05/06 06:51:19;;;;;;;55.85;23.05;;;;;;;;;;5052443;28;20024;-61
2023/05/06 06:53:47;;;;;;;50.90;23.55;;;;;;;;;;5068116;28;20038;-64
2023/05/06 06:56:12;;;;;;;57.08;22.45;;;;;;;;;;5066215;28;20040;-63
2023/05/06 06:58:38;;;;;;;54.20;23.40;;;;;;;;;;5071532;28;20028;-64
2023/05/06 07:01:03;;;;;;;46.90;22.10;;;;;;;;;;5071645;28;20052;-64
2023/05/06 07:03:29;;;;;;;48.85;22.27;;;;;;;;;;5069914;28;20393;-63
2023/05/06 07:05:54;;;;;;;49.10;21.67;;;;;;;;;;5070959;28;20032;-63
2023/05/06 07:08:21;;;;;;;52.85;22.38;;;;;;;;;;5056169;28;20041;-63
2023/05/06 07:10:46;;;;;;;46.58;21.23;;;;;;;;;;5055105;28;20029;-65
2023/05/06 07:13:12;;;;;;;40.75;19.88;;;;;;;;;;5071277;28;20024;-63
2023/05/06 07:15:37;;;;;;;41.55;20.25;;;;;;;;;;5071827;28;20040;-64
2023/05/06 07:18:03;;;;;;;43.00;20.25;;;;;;;;;;5068518;28;20111;-64
2023/05/06 07:20:28;;;;;;;39.15;19.83;;;;;;;;;;5070862;28;20338;-65
2023/05/06 07:22:54;;;;;;;37.97;19.58;;;;;;;;;;5077619;28;20024;-65
2023/05/06 07:25:19;;;;;;;37.08;19.02;;;;;;;;;;5085551;28;20415;-64
2023/05/06 07:27:44;;;;;;;34.05;17.63;;;;;;;;;;5076368;28;20043;-64
2023/05/06 07:30:10;;;;;;;32.08;17.88;;;;;;;;;;5079573;28;20090;-64
2023/05/06 07:32:36;;;;;;;35.92;18.33;;;;;;;;;;5078249;28;20530;-64
2023/05/06 07:35:02;;;;;;;32.63;17.63;;;;;;;;;;5076493;28;20147;-64
2023/05/06 07:37:27;;;;;;;31.65;16.45;;;;;;;;;;5054485;28;20132;-64
2023/05/06 07:39:52;;;;;;;33.78;16.77;;;;;;;;;;5051646;28;20060;-64
2023/05/06 07:42:18;;;;;;;32.80;17.27;;;;;;;;;;5083113;28;20389;-63
2023/05/06 07:44:43;;;;;;;25.90;16.08;;;;;;;;;;5078747;28;20062;-65
2023/05/06 07:47:09;;;;;;;27.70;15.75;;;;;;;;;;5075186;28;20036;-65
2023/05/06 07:49:34;;;;;;;27.90;16.45;;;;;;;;;;5075852;28;20325;-64
2023/05/06 07:52:00;;;;;;;25.02;14.88;;;;;;;;;;5091798;28;20024;-64
2023/05/06 07:54:25;;;;;;;25.35;13.98;;;;;;;;;;5093774;28;20028;-63
2023/05/06 07:56:50;;;;;;;24.90;14.82;;;;;;;;;;5083352;28;20036;-63
2023/05/06 07:59:16;;;;;;;24.27;13.38;;;;;;;;;;5083420;28;20035;-62
2023/05/06 08:01:41;;;;;;;22.63;13.35;;;;;;;;;;5087206;28;20373;-64
2023/05/06 08:04:07;;;;;;;26.58;14.68;;;;;;;;;;5071445;28;20115;-64
2023/05/06 08:06:32;;;;;;;26.08;14.15;;;;;;;;;;5066295;28;20111;-65
2023/05/06 08:08:58;;;;;;;24.05;13.43;;;;;;;;;;5060303;28;20047;-65
2023/05/06 08:11:23;;;;;;;23.88;13.32;;;;;;;;;;5054284;28;20060;-65
2023/05/06 08:13:49;;;;;;;22.05;12.68;;;;;;;;;;5065858;28;20423;-64
2023/05/06 08:16:14;;;;;;;16.63;10.05;;;;;;;;;;5062201;28;20457;-64
2023/05/06 08:18:40;;;;;;;17.73;10.00;;;;;;;;;;5063201;28;20061;-64
2023/05/06 08:21:05;;;;;;;18.13;10.63;;;;;;;;;;5058518;28;20037;-64
2023/05/06 08:23:31;;;;;;;17.98;11.20;;;;;;;;;;5054972;28;20033;-64
2023/05/06 08:25:58;;;;;;;17.38;9.95;;;;;;;;;;5062197;28;20040;-64
2023/05/06 08:28:23;;;;;;;16.33;10.15;;;;;;;;;;5064933;28;20033;-64
2023/05/06 08:30:51;;;;;;;17.00;10.07;;;;;;;;;;5055070;28;20041;-68
2023/05/06 08:33:17;;;;;;;16.15;10.52;;;;;;;;;;5053628;28;20025;-69
2023/05/06 08:35:43;;;;;;;13.25;8.48;;;;;;;;;;5054370;28;20469;-67
2023/05/06 08:38:09;;;;;;;15.35;8.60;;;;;;;;;;5066571;28;20056;-68
2023/05/06 08:40:40;;;;;;;13.75;8.77;;;;;;;;;;5072545;28;20432;-67
2023/05/06 08:43:13;;;;;;;15.02;7.65;;;;;;;;;;5074811;28;20036;-67
2023/05/06 08:45:40;;;;;;;12.63;8.32;;;;;;;;;;5074160;28;20606;-66
2023/05/06 08:48:06;;;;;;;11.15;6.95;;;;;;;;;;5074576;28;20032;-68
2023/05/06 08:50:32;;;;;;;9.98;6.07;;;;;;;;;;5073786;28;20035;-68
2023/05/06 08:52:59;;;;;;;7.82;4.90;;;;;;;;;;5063669;28;20037;-67
2023/05/06 08:55:25;;;;;;;7.63;5.40;;;;;;;;;;5069997;28;20104;-66
2023/05/06 08:57:52;;;;;;;11.77;6.40;;;;;;;;;;5073251;28;20047;-66
2023/05/06 09:00:17;;;;;;;10.63;6.72;;;;;;;;;;5074284;28;20058;-66
2023/05/06 09:02:43;;;;;;;9.27;6.57;;;;;;;;;;5072393;28;20029;-65
2023/05/06 09:05:09;;;;;;;10.00;6.20;;;;;;;;;;5070367;28;20036;-67
2023/05/06 09:07:34;;;;;;;8.75;5.55;;;;;;;;;;5071862;28;20036;-66
2023/05/06 09:10:05;;;;;;;8.38;4.95;;;;;;;;;;5074121;28;20166;-66
2023/05/06 09:12:30;;;;;;;6.90;4.60;;;;;;;;;;5063965;28;20045;-66
2023/05/06 09:14:55;;;;;;;7.40;4.55;;;;;;;;;;5069232;28;20095;-66
2023/05/06 09:17:26;;;;;;;7.63;4.97;;;;;;;;;;5059312;28;20040;-67
2023/05/06 09:19:55;;;;;;;7.85;4.63;;;;;;;;;;5074224;28;20166;-65
2023/05/06 09:22:21;;;;;;;7.78;5.50;;;;;;;;;;5073574;28;20041;-66
2023/05/06 09:24:55;;;;;;;10.77;5.00;;;;;;;;;;5073727;28;20058;-64
2023/05/06 09:27:28;;;;;;;8.07;5.00;;;;;;;;;;5073994;28;20033;-66
2023/05/06 09:30:08;;;;;;;7.28;4.82;;;;;;;;;;5071653;28;20469;-63
2023/05/06 09:32:34;;;;;;;7.70;4.97;;;;;;;;;;5073354;28;20120;-61
2023/05/06 09:35:00;;;;;;;8.35;5.22;;;;;;;;;;5073941;28;20039;-62
2023/05/06 09:37:26;;;;;;;8.88;5.85;;;;;;;;;;5072650;28;20075;-61
2023/05/06 09:39:57;;;;;;;9.73;5.53;;;;;;;;;;5073723;28;20437;-62
2023/05/06 09:42:25;;;;;;;8.40;5.40;;;;;;;;;;5093819;28;20139;-61
2023/05/06 09:44:54;;;;;;;6.93;5.32;;;;;;;;;;5090520;28;20393;-62
2023/05/06 09:47:24;;;;;;;7.97;5.10;;;;;;;;;;5068419;28;20035;-62
2023/05/06 09:49:49;;;;;;;7.50;5.15;;;;;;;;;;5073565;28;20025;-62
2023/05/06 09:52:15;;;;;;;8.40;4.93;;;;;;;;;;5073563;28;20033;-62
2023/05/06 09:54:41;;;;;;;8.82;5.00;;;;;;;;;;5072058;28;20040;-61
2023/05/06 09:57:08;;;;;;;7.35;4.72;;;;;;;;;;5073365;28;20028;-62
2023/05/06 09:59:35;;;;;;;7.05;4.88;;;;;;;;;;5065597;28;20075;-61
2023/05/06 10:02:01;;;;;;;9.60;5.28;;;;;;;;;;5069695;28;20214;-61
2023/05/06 10:04:29;;;;;;;6.68;4.63;;;;;;;;;;5053615;28;20060;-60
2023/05/06 10:06:56;;;;;;;7.47;4.70;;;;;;;;;;5055292;28;20037;-62
2023/05/06 10:09:26;;;;;;;7.07;4.70;;;;;;;;;;5053181;28;20500;-61
2023/05/06 10:11:52;;;;;;;6.93;4.93;;;;;;;;;;5062459;28;20063;-61
2023/05/06 10:14:18;;;;;;;7.47;4.78;;;;;;;;;;5054121;28;20037;-62
2023/05/06 10:16:47;;;;;;;6.25;4.20;;;;;;;;;;5051394;28;20032;-62
2023/05/06 10:19:14;;;;;;;8.50;4.40;;;;;;;;;;5059870;28;20031;-61
2023/05/06 10:21:47;;;;;;;5.78;4.05;;;;;;;;;;5071605;28;20028;-62
2023/05/06 10:24:17;;;;;;;8.77;4.00;;;;;;;;;;5073065;28;20024;-62
2023/05/06 10:26:45;;;;;;;5.40;3.75;;;;;;;;;;5072106;28;20115;-63
2023/05/06 10:29:12;;;;;;;7.72;4.20;;;;;;;;;;5069379;28;20032;-62
2023/05/06 10:31:54;;;;;;;6.93;4.03;;;;;;;;;;5071805;28;20036;-63
2023/05/06 10:34:21;;;;;;;3.80;2.67;;;;;;;;;;5072995;28;20514;-62
2023/05/06 10:36:56;;;;;;;5.35;2.83;;;;;;;;;;5071895;28;20102;-62
2023/05/06 10:39:21;;;;;;;6.55;2.72;;;;;;;;;;5072619;28;20102;-62
2023/05/06 10:41:47;;;;;;;4.22;2.35;;;;;;;;;;5070149;28;20229;-62
2023/05/06 10:44:13;;;;;;;5.35;2.50;;;;;;;;;;5072760;28;20060;-62
2023/05/06 10:46:59;;;;;;;4.38;2.50;;;;;;;;;;5071507;28;20082;-62
2023/05/06 10:49:25;;;;;;;5.32;2.35;;;;;;;;;;5063250;28;20484;-63
2023/05/06 10:52:12;;;;;;;3.38;2.15;;;;;;;;;;5066069;28;20028;-62
2023/05/06 10:54:50;;;;;;;5.88;2.42;;;;;;;;;;5052681;28;20458;-61
2023/05/06 10:57:16;;;;;;;3.45;2.47;;;;;;;;;;5057248;28;20099;-62
2023/05/06 10:59:46;;;;;;;4.38;2.60;;;;;;;;;;5069875;28;20449;-62
2023/05/06 11:02:12;;;;;;;6.07;2.50;;;;;;;;;;5072143;28;20034;-63
2023/05/06 11:04:38;;;;;;;4.40;2.45;;;;;;;;;;5060753;28;20116;-62
2023/05/06 11:07:10;;;;;;;4.18;2.40;;;;;;;;;;5068522;28;20115;-62
2023/05/06 11:10:06;;;;;;;4.75;2.20;;;;;;;;;;5056038;28;20029;-62
2023/05/06 11:12:48;;;;;;;5.30;2.25;;;;;;;;;;5071307;28;20429;-60
2023/05/06 11:15:22;;;;;;;3.60;2.20;;;;;;;;;;5055671;28;20091;-62
2023/05/06 11:17:48;;;;;;;2.97;1.83;;;;;;;;;;5066033;28;20526;-62
2023/05/06 11:20:19;;;;;;;3.78;1.80;;;;;;;;;;5070629;28;20029;-62
2023/05/06 11:22:45;;;;;;;2.85;2.00;;;;;;;;;;5070921;28;20028;-63
2023/05/06 11:25:11;;;;;;;3.13;2.10;;;;;;;;;;5070279;28;20081;-62
2023/05/06 11:27:37;;;;;;;4.88;2.13;;;;;;;;;;5078445;28;20040;-62
2023/05/06 11:30:03;;;;;;;2.00;1.80;;;;;;;;;;5091717;28;20036;-62
2023/05/06 11:32:29;;;;;;;1.80;1.67;;;;;;;;;;5091146;28;20480;-60
2023/05/06 11:34:58;;;;;;;3.25;2.20;;;;;;;;;;5073111;28;20032;-62
2023/05/06 11:37:28;;;;;;;2.67;2.10;;;;;;;;;;5071363;28;20055;-62
2023/05/06 11:39:54;;;;;;;3.28;2.00;;;;;;;;;;5070282;28;20048;-61
2023/05/06 11:42:27;;;;;;;3.75;2.10;;;;;;;;;;5081429;28;20137;-62
2023/05/06 11:45:00;;;;;;;3.63;1.90;;;;;;;;;;5074641;28;20063;-61
2023/05/06 11:47:25;;;;;;;3.58;1.95;;;;;;;;;;5071511;28;20062;-62
2023/05/06 11:49:52;;;;;;;4.65;1.80;;;;;;;;;;5069418;28;20036;-63
2023/05/06 11:52:19;;;;;;;3.33;1.95;;;;;;;;;;5070041;28;20054;-63
2023/05/06 11:54:45;;;;;;;3.90;1.80;;;;;;;;;;5070115;28;20124;-63
2023/05/06 11:57:11;;;;;;;3.35;1.73;;;;;;;;;;5071386;28;20037;-63
2023/05/06 11:59:38;;;;;;;2.47;1.60;;;;;;;;;;5071411;28;20028;-63
2023/05/06 12:02:06;;;;;;;2.60;1.55;;;;;;;;;;5070597;28;20090;-62
2023/05/06 12:04:45;;;;;;;2.78;1.77;;;;;;;;;;5070807;28;20033;-63
2023/05/06 12:07:13;;;;;;;3.03;1.80;;;;;;;;;;5071472;28;20035;-63
2023/05/06 12:09:44;;;;;;;3.17;1.90;;;;;;;;;;5070363;28;20048;-61
2023/05/06 12:12:13;;;;;;;2.60;1.98;;;;;;;;;;5071465;28;20380;-63
2023/05/06 12:14:39;;;;;;;2.45;1.80;;;;;;;;;;5070205;28;20032;-63
2023/05/06 12:17:05;;;;;;;2.67;1.65;;;;;;;;;;5070412;28;20093;-62
2023/05/06 12:19:31;;;;;;;2.45;1.75;;;;;;;;;;5063898;28;20033;-62
2023/05/06 12:22:16;;;;;;;2.83;1.80;;;;;;;;;;5056624;28;20495;-62
2023/05/06 12:24:42;;;;;;;2.63;1.70;;;;;;;;;;5067382;28;20036;-62
2023/05/06 12:27:07;;;;;;;4.40;1.80;;;;;;;;;;5054543;28;20033;-62
2023/05/06 12:29:33;;;;;;;3.78;1.50;;;;;;;;;;5050789;28;20031;-63
2023/05/06 12:32:10;;;;;;;3.45;2.15;;;;;;;;;;5049730;28;20032;-62
2023/05/06 12:34:37;;;;;;;2.13;1.30;;;;;;;;;;5069423;28;20131;-62
2023/05/06 12:37:04;;;;;;;2.95;1.70;;;;;;;;;;5070874;28;20055;-64
2023/05/06 12:39:37;;;;;;;2.40;1.75;;;;;;;;;;5070862;28;20040;-63
2023/05/06 12:42:03;;;;;;;4.20;1.70;;;;;;;;;;5074418;28;20119;-64
2023/05/06 12:44:31;;;;;;;3.05;1.42;;;;;;;;;;5062712;28;20445;-63
2023/05/06 12:46:59;;;;;;;3.28;1.52;;;;;;;;;;5055548;28;20028;-64
2023/05/06 12:49:24;;;;;;;3.72;1.48;;;;;;;;;;5060296;28;20594;-67
2023/05/06 12:52:07;;;;;;;2.63;1.30;;;;;;;;;;5069349;28;20042;-64
2023/05/06 12:54:32;;;;;;;2.83;2.00;;;;;;;;;;5064982;28;20435;-69
2023/05/06 12:56:58;;;;;;;4.03;2.00;;;;;;;;;;5057336;28;20496;-66
2023/05/06 12:59:25;;;;;;;2.67;1.77;;;;;;;;;;5053144;28;20385;-64
2023/05/06 13:01:50;;;;;;;2.78;1.60;;;;;;;;;;5056039;28;20161;-66
2023/05/06 13:04:16;;;;;;;2.63;1.60;;;;;;;;;;5060680;28;20067;-63
2023/05/06 13:06:41;;;;;;;2.85;1.70;;;;;;;;;;5070533;28;20055;-61
2023/05/06 13:09:08;;;;;;;3.15;1.80;;;;;;;;;;5073930;28;20067;-64
2023/05/06 13:11:34;;;;;;;2.95;1.50;;;;;;;;;;5072660;28;20063;-66
2023/05/06 13:13:59;;;;;;;2.65;1.85;;;;;;;;;;5073486;28;20071;-63
2023/05/06 13:16:25;;;;;;;4.10;1.95;;;;;;;;;;5074377;28;20382;-63
2023/05/06 13:18:50;;;;;;;5.55;1.77;;;;;;;;;;5073366;28;20050;-63
2023/05/06 13:21:16;;;;;;;3.30;1.65;;;;;;;;;;5072491;28;20025;-62
2023/05/06 13:23:46;;;;;;;4.63;1.60;;;;;;;;;;5073326;28;20066;-63
2023/05/06 13:26:12;;;;;;;4.03;1.88;;;;;;;;;;5074147;28;20028;-62
2023/05/06 13:28:38;;;;;;;3.25;1.52;;;;;;;;;;5073355;28;20040;-68
2023/05/06 13:31:04;;;;;;;4.53;1.60;;;;;;;;;;5056212;28;20025;-64
2023/05/06 13:33:30;;;;;;;2.83;1.55;;;;;;;;;;5063824;28;20047;-63
2023/05/06 13:35:56;;;;;;;3.33;1.42;;;;;;;;;;5071268;28;20032;-64
2023/05/06 13:38:21;;;;;;;2.03;1.50;;;;;;;;;;5070657;28;20048;-63
2023/05/06 13:40:51;;;;;;;3.30;1.60;;;;;;;;;;5063758;28;20025;-64
2023/05/06 13:43:17;;;;;;;2.45;1.40;;;;;;;;;;5060235;28;20025;-63
2023/05/06 13:45:46;;;;;;;3.00;1.38;;;;;;;;;;5067237;28;20546;-64
2023/05/06 13:48:12;;;;;;;2.63;1.40;;;;;;;;;;5062835;28;20017;-63
2023/05/06 13:50:44;;;;;;;1.92;1.35;;;;;;;;;;5071820;28;20074;-66
2023/05/06 13:53:10;;;;;;;3.33;1.83;;;;;;;;;;5056290;28;20032;-65
2023/05/06 13:55:36;;;;;;;4.13;1.58;;;;;;;;;;5051995;28;20079;-66
2023/05/06 13:58:02;;;;;;;4.32;1.48;;;;;;;;;;5060062;28;20060;-63
2023/05/06 14:00:28;;;;;;;2.20;1.40;;;;;;;;;;5072161;28;20042;-62
2023/05/06 14:02:53;;;;;;;2.92;1.23;;;;;;;;;;5070947;28;20536;-62
2023/05/06 14:05:19;;;;;;;5.38;2.28;;;;;;;;;;5056625;28;20099;-63
2023/05/06 14:07:44;;;;;;;3.33;2.10;;;;;;;;;;5068217;28;20098;-63
2023/05/06 14:10:10;;;;;;;3.03;1.95;;;;;;;;;;5073117;28;20389;-62
2023/05/06 14:12:36;;;;;;;2.40;1.92;;;;;;;;;;5077874;28;20036;-65
2023/05/06 14:15:01;;;;;;;3.67;2.00;;;;;;;;;;5072553;28;20570;-64
2023/05/06 14:17:27;;;;;;;4.72;2.00;;;;;;;;;;5060987;28;20032;-63
2023/05/06 14:19:52;;;;;;;3.75;2.00;;;;;;;;;;5055787;28;20033;-64
2023/05/06 14:22:17;;;;;;;2.92;1.92;;;;;;;;;;5071208;28;20029;-63
2023/05/06 14:24:44;;;;;;;4.28;1.85;;;;;;;;;;5066312;28;20122;-64